createdAt,value
2023-03-02T00:01:40.141Z,0.10
2023-03-02T00:04:13.865Z,0.00
2023-03-02T00:06:42.523Z,0.00
2023-03-02T00:09:10.737Z,0.00
2023-03-02T00:11:39.907Z,-0.10
2023-03-02T00:14:08.593Z,0.00
2023-03-02T00:16:37.126Z,0.00
2023-03-02T00:19:05.750Z,0.00
2023-03-02T00:21:35.381Z,0.00
2023-03-02T00:24:04.606Z,0.00
2023-03-02T00:26:34.890Z,-0.10
2023-03-02T00:29:04.017Z,-0.20
2023-03-02T00:31:32.379Z,-0.20
2023-03-02T00:34:01.014Z,-0.20
2023-03-02T00:36:29.184Z,-0.20
2023-03-02T00:38:59.735Z,-0.30
2023-03-02T00:41:28.385Z,-0.30
2023-03-02T00:43:56.774Z,-0.40
2023-03-02T00:46:26.113Z,-0.40
2023-03-02T00:48:54.459Z,-0.40
2023-03-02T00:51:23.009Z,-0.50
2023-03-02T00:53:51.612Z,-0.50
2023-03-02T00:56:21.356Z,-0.40
2023-03-02T00:58:52.872Z,-0.40
2023-03-02T01:01:21.719Z,-0.50
2023-03-02T01:03:53.606Z,-0.40
2023-03-02T01:06:22.847Z,-0.40
2023-03-02T01:08:51.235Z,-0.40
2023-03-02T01:11:22.809Z,-0.40
2023-03-02T01:13:53.065Z,-0.40
2023-03-02T01:16:21.383Z,-0.40
2023-03-02T01:18:50.119Z,-0.50
2023-03-02T01:21:18.482Z,-0.50
2023-03-02T01:23:47.167Z,-0.50
2023-03-02T01:26:15.605Z,-0.40
2023-03-02T01:28:45.938Z,-0.40
2023-03-02T01:31:14.236Z,-0.40
2023-03-02T01:33:42.525Z,-0.40
2023-03-02T01:36:11.033Z,-0.50
2023-03-02T01:38:39.365Z,-0.50
2023-03-02T01:41:07.762Z,-0.50
2023-03-02T01:43:36.230Z,-0.50
2023-03-02T01:46:07.675Z,-0.50
2023-03-02T01:48:59.911Z,-0.60
2023-03-02T01:51:39.443Z,-0.60
2023-03-02T01:54:11.194Z,-0.60
2023-03-02T01:56:41.828Z,-0.60
2023-03-02T01:59:13.363Z,-0.70
2023-03-02T02:01:46.675Z,-0.70
2023-03-02T02:04:16.188Z,-0.70
2023-03-02T02:06:48.950Z,-0.70
2023-03-02T02:09:19.615Z,-0.70
2023-03-02T02:11:48.277Z,-0.70
2023-03-02T02:14:17.103Z,-0.80
2023-03-02T02:16:46.800Z,-0.80
2023-03-02T02:19:26.272Z,-0.90
2023-03-02T02:21:54.617Z,-0.90
2023-03-02T02:24:27.460Z,-1.00
2023-03-02T02:26:58.222Z,-1.00
2023-03-02T02:29:29.546Z,-1.00
2023-03-02T02:32:02.808Z,-1.00
2023-03-02T02:34:35.574Z,-1.00
2023-03-02T02:37:09.807Z,-1.10
2023-03-02T02:39:42.741Z,-1.00
2023-03-02T02:42:18.567Z,-1.00
2023-03-02T02:44:46.917Z,-1.10
2023-03-02T02:47:19.306Z,-1.10
2023-03-02T02:49:51.168Z,-1.10
2023-03-02T02:52:21.635Z,-1.10
2023-03-02T02:54:51.956Z,-1.10
2023-03-02T02:57:24.618Z,-1.10
2023-03-02T02:59:56.241Z,-1.10
2023-03-02T03:02:27.017Z,-1.10
2023-03-02T03:05:02.573Z,-1.20
2023-03-02T03:07:34.030Z,-1.20
2023-03-02T03:10:11.897Z,-1.30
2023-03-02T03:12:42.171Z,-1.20
2023-03-02T03:15:12.235Z,-1.20
2023-03-02T03:17:40.928Z,-1.10
2023-03-02T03:20:10.630Z,-1.10
2023-03-02T03:22:43.799Z,-1.10
2023-03-02T03:25:15.794Z,-1.10
2023-03-02T03:27:48.573Z,-1.00
2023-03-02T03:30:17.784Z,-1.00
2023-03-02T03:32:46.468Z,-1.00
2023-03-02T03:35:16.971Z,-1.00
2023-03-02T03:37:45.804Z,-0.90
2023-03-02T03:40:16.884Z,-0.90
2023-03-02T03:42:48.145Z,-0.90
2023-03-02T03:45:17.020Z,-0.90
2023-03-02T03:47:46.096Z,-0.90
2023-03-02T03:50:14.852Z,-1.00
2023-03-02T03:52:44.105Z,-1.00
2023-03-02T03:55:18.070Z,-1.10
2023-03-02T03:57:49.310Z,-1.10
2023-03-02T04:00:18.864Z,-1.10
2023-03-02T04:02:55.959Z,-1.20
2023-03-02T04:05:25.380Z,-1.20
2023-03-02T04:07:55.278Z,-1.20
2023-03-02T04:10:24.614Z,-1.20
2023-03-02T04:12:56.082Z,-1.30
2023-03-02T04:15:25.145Z,-1.30
2023-03-02T04:17:54.037Z,-1.30
2023-03-02T04:20:30.393Z,-1.30
2023-03-02T04:22:59.681Z,-1.40
2023-03-02T04:25:30.485Z,-1.30
2023-03-02T04:28:20.422Z,-1.30
2023-03-02T04:30:49.392Z,-1.30
2023-03-02T04:33:18.066Z,-1.40
2023-03-02T04:35:46.705Z,-1.40
2023-03-02T04:38:15.838Z,-1.40
2023-03-02T04:40:46.115Z,-1.40
2023-03-02T04:43:14.970Z,-1.40
2023-03-02T04:45:44.656Z,-1.40
2023-03-02T04:48:12.913Z,-1.50
2023-03-02T04:50:41.988Z,-1.50
2023-03-02T04:53:12.007Z,-1.50
2023-03-02T04:55:41.163Z,-1.60
2023-03-02T04:58:10.497Z,-1.60
2023-03-02T05:00:38.814Z,-1.70
2023-03-02T05:03:08.630Z,-1.70
2023-03-02T05:05:37.014Z,-1.70
2023-03-02T05:08:05.673Z,-1.70
2023-03-02T05:10:34.234Z,-1.80
2023-03-02T05:13:05.133Z,-1.80
2023-03-02T05:15:36.307Z,-1.80
2023-03-02T05:18:05.868Z,-1.70
2023-03-02T05:20:36.172Z,-1.70
2023-03-02T05:23:06.906Z,-1.70
2023-03-02T05:25:36.996Z,-1.70
2023-03-02T05:28:07.010Z,-1.80
2023-03-02T05:30:37.703Z,-1.70
2023-03-02T05:33:06.366Z,-1.80
2023-03-02T05:35:36.858Z,-1.80
2023-03-02T05:38:05.414Z,-1.80
2023-03-02T05:40:34.161Z,-1.70
2023-03-02T05:43:02.697Z,-1.70
2023-03-02T05:45:33.779Z,-1.70
2023-03-02T05:48:02.147Z,-1.70
2023-03-02T05:50:31.089Z,-1.70
2023-03-02T05:53:02.587Z,-1.60
2023-03-02T05:55:31.389Z,-1.60
2023-03-02T05:57:59.586Z,-1.70
2023-03-02T06:00:27.986Z,-1.70
2023-03-02T06:02:57.537Z,-1.70
2023-03-02T06:05:26.152Z,-1.70
2023-03-02T06:07:54.790Z,-1.70
2023-03-02T06:10:25.650Z,-1.70
2023-03-02T06:12:54.007Z,-1.70
2023-03-02T06:15:22.851Z,-1.70
2023-03-02T06:17:51.131Z,-1.60
2023-03-02T06:20:20.251Z,-1.60
2023-03-02T06:22:48.868Z,-1.60
2023-03-02T06:25:19.627Z,-1.50
2023-03-02T06:27:51.993Z,-1.50
2023-03-02T06:30:22.132Z,-1.50
2023-03-02T06:32:50.496Z,-1.40
2023-03-02T06:35:19.031Z,-1.50
2023-03-02T06:37:47.399Z,-1.50
2023-03-02T06:40:15.715Z,-1.40
2023-03-02T06:42:44.298Z,-1.30
2023-03-02T06:45:14.213Z,-1.20
2023-03-02T06:47:42.665Z,-1.10
2023-03-02T06:50:12.270Z,-1.00
2023-03-02T06:52:40.844Z,-0.90
2023-03-02T06:55:09.790Z,-0.80
2023-03-02T06:57:38.561Z,-0.70
2023-03-02T07:00:10.243Z,-0.50
2023-03-02T07:02:40.018Z,-0.40
2023-03-02T07:05:08.944Z,-0.20
2023-03-02T07:07:37.656Z,0.00
2023-03-02T07:10:07.205Z,0.10
2023-03-02T07:12:35.930Z,0.30
2023-03-02T07:15:05.374Z,0.50
2023-03-02T07:17:35.469Z,0.80
2023-03-02T07:20:06.010Z,1.50
2023-03-02T07:22:34.989Z,2.00
2023-03-02T07:25:03.228Z,2.60
2023-03-02T07:27:32.991Z,3.10
2023-03-02T07:30:01.370Z,3.40
2023-03-02T07:32:29.679Z,3.80
2023-03-02T07:34:57.923Z,3.90
2023-03-02T07:37:27.561Z,4.10
2023-03-02T07:39:55.798Z,4.20
2023-03-02T07:42:24.342Z,4.20
2023-03-02T07:44:57.343Z,4.60
2023-03-02T07:47:25.845Z,5.20
2023-03-02T07:49:54.044Z,5.60
2023-03-02T07:52:22.376Z,6.00
2023-03-02T07:54:52.414Z,6.60
2023-03-02T07:57:20.953Z,6.90
2023-03-02T07:59:49.349Z,7.00
2023-03-02T08:02:20.288Z,6.90
2023-03-02T08:04:48.803Z,7.00
2023-03-02T08:07:17.662Z,6.90
2023-03-02T08:09:45.986Z,7.10
2023-03-02T08:12:15.633Z,7.00
2023-03-02T08:14:44.286Z,7.30
2023-03-02T08:17:12.560Z,7.50
2023-03-02T08:19:40.806Z,7.50
2023-03-02T08:22:09.441Z,7.50
2023-03-02T08:24:38.336Z,7.50
2023-03-02T08:27:06.617Z,7.60
2023-03-02T08:29:36.358Z,7.80
2023-03-02T08:32:05.208Z,7.80
2023-03-02T08:34:38.779Z,8.00
2023-03-02T08:37:07.092Z,8.50
2023-03-02T08:39:35.341Z,8.80
2023-03-02T08:42:03.580Z,8.80
2023-03-02T08:44:31.838Z,9.20
2023-03-02T08:47:01.475Z,9.40
2023-03-02T08:49:29.744Z,9.30
2023-03-02T08:52:01.103Z,9.50
2023-03-02T08:54:29.386Z,9.60
2023-03-02T08:56:58.021Z,9.40
2023-03-02T08:59:26.922Z,9.20
2023-03-02T09:01:55.139Z,9.40
2023-03-02T09:04:24.795Z,9.50
2023-03-02T09:06:53.136Z,9.60
2023-03-02T09:09:21.345Z,9.60
2023-03-02T09:11:49.568Z,9.50
2023-03-02T09:14:17.821Z,9.40
2023-03-02T09:16:47.068Z,9.60
2023-03-02T09:19:15.710Z,9.70
2023-03-02T09:21:45.477Z,9.70
2023-03-02T09:24:13.698Z,9.70
2023-03-02T09:26:43.750Z,9.90
2023-03-02T09:29:11.999Z,10.00
2023-03-02T09:31:40.561Z,10.10
2023-03-02T09:34:08.828Z,9.90
2023-03-02T09:36:38.110Z,9.60
2023-03-02T09:39:12.557Z,9.50
2023-03-02T09:42:22.883Z,9.40
2023-03-02T09:45:04.280Z,9.60
2023-03-02T09:47:40.035Z,9.50
2023-03-02T09:50:26.521Z,9.30
2023-03-02T09:53:12.911Z,9.10
2023-03-02T09:55:42.686Z,9.20
2023-03-02T09:58:18.269Z,9.30
2023-03-02T10:00:47.726Z,9.40
2023-03-02T10:03:19.910Z,9.40
2023-03-02T10:05:50.054Z,9.30
2023-03-02T10:08:20.827Z,9.50
2023-03-02T10:10:59.747Z,10.30
2023-03-02T10:13:32.028Z,10.60
2023-03-02T10:16:19.617Z,10.60
2023-03-02T10:18:52.261Z,10.60
2023-03-02T10:21:26.639Z,10.60
2023-03-02T10:23:59.005Z,10.70
2023-03-02T10:26:39.682Z,10.70
2023-03-02T10:29:28.964Z,10.20
2023-03-02T10:32:03.766Z,9.90
2023-03-02T10:34:32.475Z,9.60
2023-03-02T10:37:00.755Z,9.80
2023-03-02T10:39:29.088Z,9.70
2023-03-02T10:42:04.142Z,9.60
2023-03-02T10:44:37.578Z,9.70
2023-03-02T10:47:07.516Z,9.80
2023-03-02T10:49:39.397Z,9.50
2023-03-02T10:52:13.838Z,9.50
2023-03-02T10:54:42.531Z,9.70
2023-03-02T10:57:32.208Z,10.10
2023-03-02T11:00:03.109Z,10.30
2023-03-02T11:02:38.899Z,10.00
2023-03-02T11:05:24.046Z,10.10
2023-03-02T11:07:57.740Z,10.30
2023-03-02T11:10:29.261Z,10.00
2023-03-02T11:13:00.370Z,9.90
2023-03-02T11:15:35.774Z,10.20
2023-03-02T11:18:08.854Z,10.40
2023-03-02T11:20:41.139Z,10.60
2023-03-02T11:23:19.595Z,11.00
2023-03-02T11:25:52.973Z,10.90
2023-03-02T11:28:34.717Z,11.10
2023-03-02T11:31:08.177Z,11.50
2023-03-02T11:33:43.962Z,11.80
2023-03-02T11:36:19.309Z,12.00
2023-03-02T11:38:51.609Z,12.30
2023-03-02T11:41:29.895Z,12.60
2023-03-02T11:44:02.932Z,12.50
2023-03-02T11:46:33.382Z,12.60
2023-03-02T11:49:06.575Z,12.30
2023-03-02T11:51:39.073Z,12.30
2023-03-02T11:54:17.177Z,12.20
2023-03-02T11:56:45.523Z,12.20
2023-03-02T11:59:20.361Z,12.40
2023-03-02T12:01:52.784Z,12.40
2023-03-02T12:04:30.075Z,12.30
2023-03-02T12:06:58.348Z,12.40
2023-03-02T12:09:39.482Z,12.70
2023-03-02T12:12:34.386Z,13.00
2023-03-02T12:15:04.500Z,12.50
2023-03-02T12:17:35.208Z,12.30
2023-03-02T12:20:26.649Z,12.20
2023-03-02T12:22:55.839Z,11.80
2023-03-02T12:25:29.928Z,12.00
2023-03-02T12:27:58.717Z,12.20
2023-03-02T12:30:30.595Z,12.40
2023-03-02T12:33:05.686Z,12.60
2023-03-02T12:35:35.655Z,12.50
2023-03-02T12:38:08.279Z,12.70
2023-03-02T12:40:49.872Z,12.60
2023-03-02T12:43:31.214Z,12.50
2023-03-02T12:46:29.176Z,12.20
2023-03-02T12:49:23.290Z,11.80
2023-03-02T12:51:55.208Z,11.70
2023-03-02T12:54:25.332Z,11.60
2023-03-02T12:57:06.417Z,11.70
2023-03-02T12:59:34.709Z,12.00
2023-03-02T13:02:17.646Z,12.20
2023-03-02T13:04:46.188Z,12.10
2023-03-02T13:07:20.360Z,12.00
2023-03-02T13:09:56.686Z,11.90
2023-03-02T13:12:28.526Z,11.90
2023-03-02T13:14:58.744Z,12.10
2023-03-02T13:17:31.356Z,12.20
2023-03-02T13:20:01.060Z,12.00
2023-03-02T13:22:30.098Z,11.90
2023-03-02T13:25:00.439Z,11.60
2023-03-02T13:27:29.152Z,11.70
2023-03-02T13:30:09.342Z,11.60
2023-03-02T13:32:41.585Z,11.70
2023-03-02T13:35:20.484Z,11.70
2023-03-02T13:37:56.941Z,11.50
2023-03-02T13:40:43.114Z,11.40
2023-03-02T13:43:24.706Z,11.50
2023-03-02T13:45:54.837Z,11.50
2023-03-02T13:48:24.994Z,11.70
2023-03-02T13:50:57.339Z,11.90
2023-03-02T13:53:27.117Z,11.90
2023-03-02T13:55:55.889Z,11.80
2023-03-02T13:58:26.377Z,11.70
2023-03-02T14:00:55.674Z,12.10
2023-03-02T14:03:27.969Z,12.20
2023-03-02T14:05:57.769Z,12.60
2023-03-02T14:08:26.619Z,12.70
2023-03-02T14:10:58.388Z,12.60
2023-03-02T14:13:31.486Z,12.60
2023-03-02T14:15:59.895Z,12.50
2023-03-02T14:18:39.098Z,12.40
2023-03-02T14:21:12.046Z,12.40
2023-03-02T14:23:41.223Z,12.50
2023-03-02T14:26:35.165Z,12.50
2023-03-02T14:29:06.370Z,12.50
2023-03-02T14:31:35.386Z,12.40
2023-03-02T14:34:05.302Z,12.50
2023-03-02T14:36:35.106Z,12.30
2023-03-02T14:39:06.037Z,12.40
2023-03-02T14:41:43.910Z,12.30
2023-03-02T14:44:20.055Z,12.50
2023-03-02T14:46:48.362Z,12.40
2023-03-02T14:49:18.004Z,12.60
2023-03-02T14:51:53.869Z,12.80
2023-03-02T14:54:22.307Z,12.60
2023-03-02T14:56:50.768Z,12.90
2023-03-02T14:59:19.154Z,13.10
2023-03-02T15:01:47.612Z,13.30
2023-03-02T15:04:17.304Z,13.40
2023-03-02T15:06:47.037Z,12.70
2023-03-02T15:09:15.563Z,11.80
2023-03-02T15:11:44.085Z,11.40
2023-03-02T15:14:12.351Z,11.00
2023-03-02T15:16:43.140Z,10.70
2023-03-02T15:19:11.366Z,10.50
2023-03-02T15:21:44.677Z,10.20
2023-03-02T15:24:13.306Z,10.10
2023-03-02T15:26:42.648Z,9.90
2023-03-02T15:29:11.225Z,9.70
2023-03-02T15:31:39.482Z,9.60
2023-03-02T15:34:07.797Z,9.50
2023-03-02T15:36:36.410Z,9.40
2023-03-02T15:39:07.809Z,9.20
2023-03-02T15:41:36.556Z,9.00
2023-03-02T15:44:04.855Z,8.90
2023-03-02T15:46:33.132Z,8.80
2023-03-02T15:49:01.420Z,8.70
2023-03-02T15:51:30.638Z,8.60
2023-03-02T15:53:59.665Z,8.50
2023-03-02T15:56:38.882Z,8.40
2023-03-02T15:59:12.007Z,8.20
2023-03-02T16:01:40.632Z,8.20
2023-03-02T16:04:08.914Z,8.10
2023-03-02T16:06:37.528Z,8.10
2023-03-02T16:09:05.980Z,8.00
2023-03-02T16:11:36.031Z,7.90
2023-03-02T16:14:04.707Z,7.90
2023-03-02T16:16:32.975Z,7.80
2023-03-02T16:19:01.332Z,7.80
2023-03-02T16:21:31.078Z,7.70
2023-03-02T16:24:03.979Z,7.60
2023-03-02T16:26:33.712Z,7.50
2023-03-02T16:29:03.642Z,7.50
2023-03-02T16:31:33.776Z,7.80
2023-03-02T16:34:07.029Z,7.40
2023-03-02T16:36:36.162Z,7.30
2023-03-02T16:39:05.001Z,7.30
2023-03-02T16:41:33.392Z,7.30
2023-03-02T16:44:04.531Z,7.20
2023-03-02T16:46:36.299Z,7.10
2023-03-02T16:49:05.471Z,7.10
2023-03-02T16:51:34.065Z,7.00
2023-03-02T16:54:02.492Z,7.00
2023-03-02T16:56:30.847Z,6.90
2023-03-02T16:59:00.215Z,6.90
2023-03-02T17:01:30.364Z,6.80
2023-03-02T17:03:59.119Z,6.80
2023-03-02T17:06:29.953Z,6.70
2023-03-02T17:08:58.530Z,6.70
2023-03-02T17:11:26.807Z,6.60
2023-03-02T17:13:55.125Z,6.60
2023-03-02T17:16:24.870Z,6.50
2023-03-02T17:18:54.964Z,6.50
2023-03-02T17:21:24.460Z,6.40
2023-03-02T17:23:52.709Z,6.20
2023-03-02T17:26:20.930Z,6.00
2023-03-02T17:28:49.395Z,5.70
2023-03-02T17:31:17.751Z,5.50
2023-03-02T17:33:46.103Z,5.30
2023-03-02T17:36:15.830Z,5.10
2023-03-02T17:38:44.426Z,5.00
2023-03-02T17:41:13.181Z,4.80
2023-03-02T17:43:43.058Z,4.70
2023-03-02T17:46:20.184Z,4.60
2023-03-02T17:48:53.062Z,4.50
2023-03-02T17:51:30.700Z,4.40
2023-03-02T17:53:59.063Z,4.30
2023-03-02T17:56:28.646Z,4.20
2023-03-02T17:58:59.260Z,4.10
2023-03-02T18:01:28.943Z,4.20
2023-03-02T18:03:57.803Z,3.80
2023-03-02T18:06:28.348Z,3.90
2023-03-02T18:08:56.821Z,3.80
2023-03-02T18:11:26.769Z,3.80
2023-03-02T18:13:55.935Z,3.60
2023-03-02T18:16:25.313Z,3.60
2023-03-02T18:18:54.161Z,3.60
2023-03-02T18:21:23.565Z,3.50
2023-03-02T18:23:53.226Z,3.40
2023-03-02T18:26:21.674Z,3.30
2023-03-02T18:28:50.218Z,3.40
2023-03-02T18:31:20.153Z,3.20
2023-03-02T18:33:49.657Z,3.10
2023-03-02T18:36:17.926Z,3.50
2023-03-02T18:38:46.912Z,2.80
2023-03-02T18:41:16.502Z,3.00
2023-03-02T18:43:45.067Z,2.90
2023-03-02T18:46:21.934Z,3.00
2023-03-02T18:48:51.093Z,2.90
2023-03-02T18:51:20.009Z,2.90
2023-03-02T18:53:49.538Z,2.80
2023-03-02T18:56:19.240Z,2.40
2023-03-02T18:58:49.650Z,2.70
2023-03-02T19:01:18.119Z,2.70
2023-03-02T19:03:47.332Z,2.60
2023-03-02T19:06:16.528Z,1.80
2023-03-02T19:08:45.130Z,2.50
2023-03-02T19:11:13.952Z,2.40
2023-03-02T19:13:43.849Z,2.30
2023-03-02T19:16:12.171Z,2.10
2023-03-02T19:18:41.138Z,2.20
2023-03-02T19:21:09.412Z,2.30
2023-03-02T19:23:38.425Z,2.20
2023-03-02T19:26:06.815Z,2.40
2023-03-02T19:28:36.145Z,2.30
2023-03-02T19:31:08.878Z,2.80
2023-03-02T19:33:37.689Z,2.10
2023-03-02T19:36:06.746Z,2.10
2023-03-02T19:38:37.952Z,1.90
2023-03-02T19:41:06.595Z,2.00
2023-03-02T19:43:34.889Z,2.10
2023-03-02T19:46:03.848Z,1.90
2023-03-02T19:48:35.632Z,1.40
2023-03-02T19:51:05.029Z,1.80
2023-03-02T19:53:33.358Z,1.80
2023-03-02T19:56:03.876Z,1.80
2023-03-02T19:58:33.244Z,1.80
2023-03-02T20:01:04.230Z,1.70
2023-03-02T20:03:34.027Z,1.50
2023-03-02T20:06:03.271Z,1.50
2023-03-02T20:08:31.626Z,1.50
2023-03-02T20:11:00.310Z,1.50
2023-03-02T20:13:29.304Z,1.40
2023-03-02T20:15:57.525Z,1.40
2023-03-02T20:18:26.579Z,1.40
2023-03-02T20:20:57.349Z,1.30
2023-03-02T20:23:25.939Z,1.30
2023-03-02T20:25:54.375Z,1.20
2023-03-02T20:28:24.793Z,1.20
2023-03-02T20:30:56.166Z,1.10
2023-03-02T20:33:27.701Z,1.20
2023-03-02T20:35:58.360Z,1.20
2023-03-02T20:38:30.337Z,1.00
2023-03-02T20:40:58.661Z,1.00
2023-03-02T20:43:27.333Z,1.00
2023-03-02T20:45:56.397Z,1.00
2023-03-02T20:48:24.778Z,0.90
2023-03-02T20:50:53.140Z,1.20
2023-03-02T20:53:23.292Z,1.10
2023-03-02T20:55:51.711Z,1.10
2023-03-02T20:58:21.053Z,1.10
2023-03-02T21:00:49.322Z,1.00
2023-03-02T21:03:17.610Z,1.10
2023-03-02T21:05:45.842Z,1.00
2023-03-02T21:08:15.245Z,1.10
2023-03-02T21:10:45.471Z,2.00
2023-03-02T21:13:13.933Z,1.10
2023-03-02T21:15:42.997Z,1.10
2023-03-02T21:18:11.784Z,1.10
2023-03-02T21:20:40.357Z,1.10
2023-03-02T21:23:08.730Z,1.20
2023-03-02T21:25:37.383Z,1.10
2023-03-02T21:28:07.365Z,1.30
2023-03-02T21:30:35.794Z,1.30
2023-03-02T21:33:04.549Z,1.30
2023-03-02T21:35:32.806Z,1.30
2023-03-02T21:38:04.820Z,1.40
2023-03-02T21:40:35.780Z,1.40
2023-03-02T21:43:05.734Z,1.20
2023-03-02T21:45:36.659Z,1.20
2023-03-02T21:48:06.134Z,1.30
2023-03-02T21:50:36.710Z,1.20
2023-03-02T21:53:05.395Z,1.20
2023-03-02T21:55:34.056Z,1.20
2023-03-02T21:58:02.685Z,1.20
2023-03-02T22:00:33.623Z,1.30
2023-03-02T22:03:04.593Z,1.30
2023-03-02T22:05:33.618Z,1.30
2023-03-02T22:08:02.448Z,1.30
2023-03-02T22:10:33.203Z,1.20
2023-03-02T22:13:17.785Z,1.20
2023-03-02T22:15:47.355Z,1.20
2023-03-02T22:18:19.099Z,1.20
2023-03-02T22:20:49.912Z,1.20
2023-03-02T22:23:21.034Z,1.20
2023-03-02T22:25:53.403Z,1.30
2023-03-02T22:28:23.306Z,1.30
2023-03-02T22:30:53.610Z,1.40
2023-03-02T22:33:24.982Z,1.30
2023-03-02T22:36:02.508Z,1.20
2023-03-02T22:38:31.883Z,1.40
2023-03-02T22:41:00.499Z,1.40
2023-03-02T22:43:30.904Z,1.50
2023-03-02T22:46:06.896Z,1.40
2023-03-02T22:48:37.693Z,1.40
2023-03-02T22:51:15.617Z,1.50
2023-03-02T22:53:49.261Z,1.40
2023-03-02T22:56:35.040Z,1.60
2023-03-02T22:59:07.939Z,1.60
2023-03-02T23:01:40.708Z,1.50
2023-03-02T23:04:19.339Z,1.50
2023-03-02T23:06:48.929Z,1.50
2023-03-02T23:09:20.924Z,1.50
2023-03-02T23:11:51.228Z,1.30
2023-03-02T23:14:24.821Z,1.30
2023-03-02T23:16:55.850Z,1.30
2023-03-02T23:19:26.627Z,1.20
2023-03-02T23:21:55.317Z,1.20
2023-03-02T23:24:23.697Z,1.20
2023-03-02T23:26:53.854Z,1.10
2023-03-02T23:29:22.519Z,1.10
2023-03-02T23:31:51.295Z,1.10
2023-03-02T23:34:19.627Z,1.10
2023-03-02T23:36:49.225Z,1.10
2023-03-02T23:39:17.635Z,1.20
2023-03-02T23:41:46.319Z,1.30
2023-03-02T23:44:14.814Z,1.30
2023-03-02T23:46:43.464Z,1.20
2023-03-02T23:49:11.752Z,1.20
2023-03-02T23:51:40.899Z,1.20
2023-03-02T23:54:10.977Z,1.10
2023-03-02T23:56:39.800Z,1.10
2023-03-02T23:59:08.151Z,1.10
